createdAt,value
2023-04-13T00:02:27.719Z,61.84
2023-04-13T00:06:21.778Z,62.61
2023-04-13T00:10:29.922Z,63.28
2023-04-13T00:14:37.328Z,64.32
2023-04-13T00:18:34.634Z,61.61
2023-04-13T00:22:35.669Z,60.89
2023-04-13T00:26:45.360Z,61.90
2023-04-13T00:30:25.571Z,62.33
2023-04-13T00:33:52.873Z,63.38
2023-04-13T00:38:07.891Z,64.03
2023-04-13T00:42:14.770Z,60.90
2023-04-13T00:46:22.105Z,61.25
2023-04-13T00:50:29.626Z,61.57
2023-04-13T00:54:09.656Z,62.25
2023-04-13T00:58:12.014Z,62.92
2023-04-13T01:02:20.358Z,63.77
2023-04-13T01:06:29.061Z,61.06
2023-04-13T01:10:44.061Z,60.41
2023-04-13T01:14:48.801Z,60.77
2023-04-13T01:18:38.468Z,61.73
2023-04-13T01:22:45.867Z,62.67
2023-04-13T01:26:56.429Z,63.29
2023-04-13T01:31:02.838Z,60.52
2023-04-13T01:35:10.329Z,60.29
2023-04-13T01:39:17.856Z,60.67
2023-04-13T01:43:26.307Z,61.88
2023-04-13T01:47:31.622Z,62.58
2023-04-13T01:51:33.012Z,63.30
2023-04-13T01:55:35.249Z,61.06
2023-04-13T01:59:02.819Z,60.63
2023-04-13T02:03:10.365Z,61.26
2023-04-13T02:07:17.922Z,62.57
2023-04-13T02:11:25.360Z,63.53
2023-04-13T02:15:33.909Z,64.29
2023-04-13T02:19:43.490Z,61.70
2023-04-13T02:23:50.901Z,61.16
2023-04-13T02:27:39.282Z,61.84
2023-04-13T02:31:49.032Z,63.12
2023-04-13T02:35:57.233Z,63.82
2023-04-13T02:40:06.705Z,64.26
2023-04-13T02:43:57.254Z,61.47
2023-04-13T02:47:57.451Z,60.82
2023-04-13T02:51:57.552Z,61.42
2023-04-13T02:55:57.864Z,62.36
2023-04-13T02:59:36.093Z,63.35
2023-04-13T03:03:43.560Z,64.16
2023-04-13T03:07:51.081Z,64.75
2023-04-13T03:11:59.560Z,61.69
2023-04-13T03:16:12.923Z,61.28
2023-04-13T03:20:20.393Z,62.06
2023-04-13T03:24:31.651Z,62.97
2023-04-13T03:28:29.502Z,63.87
2023-04-13T03:32:36.950Z,64.22
2023-04-13T03:36:45.631Z,61.67
2023-04-13T03:40:53.078Z,61.09
2023-04-13T03:44:38.510Z,61.95
2023-04-13T03:48:27.792Z,62.64
2023-04-13T03:52:24.354Z,63.43
2023-04-13T03:56:25.894Z,64.26
2023-04-13T04:00:33.400Z,61.97
2023-04-13T04:03:38.748Z,61.01
2023-04-13T04:07:23.101Z,61.61
2023-04-13T04:10:47.604Z,62.14
2023-04-13T04:14:04.048Z,62.65
2023-04-13T04:17:41.198Z,63.80
2023-04-13T04:21:04.591Z,64.08
2023-04-13T04:24:54.231Z,62.59
2023-04-13T04:29:00.242Z,60.97
2023-04-13T04:32:22.479Z,61.63
2023-04-13T04:36:21.207Z,62.92
2023-04-13T04:40:24.374Z,63.94
2023-04-13T04:43:36.989Z,64.88
2023-04-13T04:47:16.028Z,62.50
2023-04-13T04:50:57.277Z,62.08
2023-04-13T04:54:40.550Z,62.46
2023-04-13T04:58:29.992Z,63.29
2023-04-13T05:02:01.350Z,64.25
2023-04-13T05:04:41.189Z,65.11
2023-04-13T05:07:17.195Z,63.98
2023-04-13T05:09:55.563Z,61.95
2023-04-13T05:12:22.297Z,61.35
2023-04-13T05:15:11.655Z,61.46
2023-04-13T05:17:41.096Z,62.15
2023-04-13T05:20:28.006Z,62.42
2023-04-13T05:23:48.078Z,63.55
2023-04-13T05:26:24.806Z,64.07
2023-04-13T05:28:54.799Z,62.48
2023-04-13T05:31:53.308Z,60.61
2023-04-13T05:34:20.495Z,59.87
2023-04-13T05:37:22.486Z,59.86
2023-04-13T05:40:14.633Z,60.25
2023-04-13T05:43:05.833Z,61.31
2023-04-13T05:45:39.358Z,61.74
2023-04-13T05:48:11.802Z,61.56
2023-04-13T05:51:32.306Z,61.76
2023-04-13T05:54:02.152Z,60.40
2023-04-13T05:56:33.707Z,58.11
2023-04-13T05:59:03.876Z,57.81
2023-04-13T06:01:34.495Z,57.60
2023-04-13T06:04:23.044Z,57.78
2023-04-13T06:07:09.149Z,58.05
2023-04-13T06:09:45.420Z,58.27
2023-04-13T06:12:24.167Z,58.51
2023-04-13T06:14:52.847Z,58.63
2023-04-13T06:17:19.974Z,57.95
2023-04-13T06:19:48.979Z,58.52
2023-04-13T06:22:35.724Z,56.39
2023-04-13T06:25:02.716Z,52.63
2023-04-13T06:28:07.502Z,50.34
2023-04-13T06:30:37.995Z,47.83
2023-04-13T06:33:08.132Z,47.67
2023-04-13T06:35:52.840Z,47.25
2023-04-13T06:38:46.844Z,45.22
2023-04-13T06:41:29.529Z,46.34
2023-04-13T06:44:26.939Z,46.30
2023-04-13T06:47:42.689Z,45.42
2023-04-13T06:50:17.841Z,44.77
2023-04-13T06:52:53.250Z,46.42
2023-04-13T06:56:01.963Z,44.37
2023-04-13T06:58:45.426Z,45.56
2023-04-13T07:01:18.039Z,44.56
2023-04-13T07:04:01.696Z,44.23
2023-04-13T07:06:28.998Z,44.34
2023-04-13T07:08:55.692Z,42.54
2023-04-13T07:11:28.707Z,43.40
2023-04-13T07:13:55.408Z,42.32
2023-04-13T07:16:24.233Z,40.51
2023-04-13T07:18:51.822Z,40.06
2023-04-13T07:21:22.379Z,40.75
2023-04-13T07:24:12.366Z,41.68
2023-04-13T07:26:57.817Z,40.34
2023-04-13T07:29:25.190Z,39.44
2023-04-13T07:32:00.473Z,39.56
2023-04-13T07:35:03.061Z,40.42
2023-04-13T07:38:02.271Z,41.14
2023-04-13T07:40:39.267Z,41.29
2023-04-13T07:43:29.204Z,39.22
2023-04-13T07:45:59.197Z,39.63
2023-04-13T07:48:26.627Z,39.92
2023-04-13T07:51:08.022Z,40.20
2023-04-13T07:53:46.531Z,40.93
2023-04-13T07:56:38.851Z,38.98
2023-04-13T07:59:28.729Z,40.50
2023-04-13T08:02:07.543Z,39.84
2023-04-13T08:04:48.473Z,40.28
2023-04-13T08:07:31.971Z,39.50
2023-04-13T08:10:04.544Z,40.79
2023-04-13T08:12:46.097Z,42.10
2023-04-13T08:15:32.528Z,41.93
2023-04-13T08:18:04.087Z,42.01
2023-04-13T08:20:34.893Z,42.42
2023-04-13T08:23:19.741Z,39.76
2023-04-13T08:25:47.048Z,41.29
2023-04-13T08:28:14.887Z,37.93
2023-04-13T08:30:51.220Z,40.13
2023-04-13T08:33:19.466Z,38.55
2023-04-13T08:35:57.743Z,37.22
2023-04-13T08:38:48.548Z,36.28
2023-04-13T08:41:31.105Z,36.18
2023-04-13T08:44:07.955Z,36.20
2023-04-13T08:47:07.332Z,33.20
2023-04-13T08:50:01.315Z,33.47
2023-04-13T08:52:55.470Z,34.30
2023-04-13T08:55:25.839Z,35.99
2023-04-13T08:57:57.777Z,36.70
2023-04-13T09:00:31.883Z,34.26
2023-04-13T09:03:07.524Z,33.68
2023-04-13T09:05:45.529Z,32.61
2023-04-13T09:08:46.263Z,33.66
2023-04-13T09:11:26.727Z,31.86
2023-04-13T09:14:21.911Z,30.21
2023-04-13T09:17:21.445Z,29.63
2023-04-13T09:19:52.801Z,30.97
2023-04-13T09:22:20.980Z,30.89
2023-04-13T09:24:56.567Z,29.46
2023-04-13T09:27:43.141Z,27.64
2023-04-13T09:30:19.022Z,30.27
2023-04-13T09:32:47.874Z,30.03
2023-04-13T09:35:14.597Z,30.74
2023-04-13T09:38:05.602Z,31.94
2023-04-13T09:40:38.502Z,30.63
2023-04-13T09:43:07.178Z,30.59
2023-04-13T09:45:48.329Z,29.93
2023-04-13T09:48:21.136Z,31.71
2023-04-13T09:51:01.550Z,29.52
2023-04-13T09:53:46.653Z,29.14
2023-04-13T09:56:25.586Z,30.24
2023-04-13T09:59:05.998Z,30.52
2023-04-13T10:01:36.669Z,30.80
2023-04-13T10:04:30.287Z,29.98
2023-04-13T10:07:02.579Z,29.26
2023-04-13T10:09:51.077Z,28.35
2023-04-13T10:12:23.477Z,29.02
2023-04-13T10:14:51.217Z,27.87
2023-04-13T10:17:51.105Z,28.28
2023-04-13T10:20:18.406Z,27.65
2023-04-13T10:23:01.523Z,27.85
2023-04-13T10:25:33.459Z,28.12
2023-04-13T10:28:28.284Z,29.09
2023-04-13T10:31:05.040Z,27.89
2023-04-13T10:34:09.077Z,27.42
2023-04-13T10:36:46.356Z,26.95
2023-04-13T10:39:25.142Z,25.40
2023-04-13T10:42:18.037Z,24.91
2023-04-13T10:44:54.013Z,26.15
2023-04-13T10:47:25.864Z,25.23
2023-04-13T10:50:00.183Z,24.67
2023-04-13T10:52:27.644Z,23.97
2023-04-13T10:55:25.032Z,23.89
2023-04-13T10:58:01.121Z,24.10
2023-04-13T11:01:12.912Z,23.29
2023-04-13T11:04:05.251Z,23.75
2023-04-13T11:06:38.768Z,23.83
2023-04-13T11:09:06.133Z,23.19
2023-04-13T11:11:35.744Z,23.79
2023-04-13T11:14:04.691Z,25.54
2023-04-13T11:16:44.966Z,24.20
2023-04-13T11:19:12.672Z,26.03
2023-04-13T11:21:57.263Z,26.84
2023-04-13T11:24:26.458Z,27.33
2023-04-13T11:27:07.429Z,27.92
2023-04-13T11:29:36.871Z,28.29
2023-04-13T11:32:27.171Z,27.92
2023-04-13T11:35:06.368Z,28.75
2023-04-13T11:37:41.140Z,27.57
2023-04-13T11:40:10.000Z,28.10
2023-04-13T11:42:45.299Z,28.78
2023-04-13T11:45:15.896Z,29.93
2023-04-13T11:48:08.854Z,29.49
2023-04-13T11:50:46.366Z,29.97
2023-04-13T11:53:20.542Z,28.67
2023-04-13T11:56:06.002Z,28.49
2023-04-13T11:58:35.353Z,28.28
2023-04-13T12:01:14.368Z,27.31
2023-04-13T12:03:59.223Z,29.11
2023-04-13T12:06:34.300Z,29.27
2023-04-13T12:09:13.601Z,30.19
2023-04-13T12:11:52.108Z,30.43
2023-04-13T12:14:53.492Z,30.65
2023-04-13T12:17:57.654Z,31.03
2023-04-13T12:20:39.865Z,30.63
2023-04-13T12:23:24.303Z,31.66
2023-04-13T12:25:58.159Z,31.76
2023-04-13T12:28:34.988Z,32.09
2023-04-13T12:31:22.759Z,31.70
2023-04-13T12:33:50.953Z,31.77
2023-04-13T12:36:20.312Z,31.82
2023-04-13T12:38:59.698Z,32.27
2023-04-13T12:41:26.884Z,32.11
2023-04-13T12:44:19.211Z,33.22
2023-04-13T12:46:46.773Z,33.40
2023-04-13T12:49:16.045Z,33.80
2023-04-13T12:51:49.363Z,33.34
2023-04-13T12:54:21.757Z,33.66
2023-04-13T12:56:53.778Z,33.24
2023-04-13T12:59:22.530Z,33.79
2023-04-13T13:01:49.981Z,33.64
2023-04-13T13:04:22.860Z,34.84
2023-04-13T13:07:12.961Z,34.20
2023-04-13T13:09:41.872Z,34.03
2023-04-13T13:12:30.367Z,33.65
2023-04-13T13:15:03.807Z,32.38
2023-04-13T13:17:33.304Z,31.95
2023-04-13T13:20:03.417Z,32.38
2023-04-13T13:22:35.064Z,30.57
2023-04-13T13:25:17.769Z,30.63
2023-04-13T13:30:14.800Z,29.22
2023-04-13T13:32:49.899Z,30.14
2023-04-13T13:35:19.407Z,29.80
2023-04-13T13:38:00.327Z,29.88
2023-04-13T13:40:33.136Z,30.77
2023-04-13T13:43:49.266Z,31.33
2023-04-13T13:46:50.688Z,31.86
2023-04-13T13:49:28.417Z,32.41
2023-04-13T13:52:27.696Z,32.31
2023-04-13T13:55:18.887Z,31.46
2023-04-13T13:57:55.032Z,31.96
2023-04-13T14:00:25.201Z,32.69
2023-04-13T14:02:52.040Z,33.04
2023-04-13T14:05:22.009Z,31.71
2023-04-13T14:07:54.612Z,32.13
2023-04-13T14:10:21.950Z,33.22
2023-04-13T14:13:10.980Z,31.98
2023-04-13T14:15:42.264Z,31.15
2023-04-13T14:18:36.100Z,32.44
2023-04-13T14:21:03.863Z,32.33
2023-04-13T14:23:39.717Z,32.19
2023-04-13T14:26:06.633Z,32.53
2023-04-13T14:28:33.540Z,33.28
2023-04-13T14:31:26.419Z,32.57
2023-04-13T14:34:13.270Z,32.42
2023-04-13T14:36:51.602Z,33.57
2023-04-13T14:39:20.422Z,33.54
2023-04-13T14:41:57.998Z,33.05
2023-04-13T14:44:44.734Z,33.45
2023-04-13T14:47:15.304Z,32.47
2023-04-13T14:49:45.728Z,32.98
2023-04-13T14:52:13.705Z,33.04
2023-04-13T14:54:56.115Z,34.05
2023-04-13T14:57:47.442Z,33.39
2023-04-13T15:00:35.835Z,32.64
2023-04-13T15:03:23.645Z,32.97
2023-04-13T15:05:56.836Z,32.73
2023-04-13T15:08:31.954Z,32.08
2023-04-13T15:10:58.646Z,32.98
2023-04-13T15:13:28.202Z,32.89
2023-04-13T15:15:55.106Z,33.24
2023-04-13T15:18:21.499Z,33.02
2023-04-13T15:21:05.643Z,32.80
2023-04-13T15:23:37.095Z,33.36
2023-04-13T15:26:04.533Z,32.69
2023-04-13T15:28:32.431Z,32.98
2023-04-13T15:31:10.628Z,33.46
2023-04-13T15:33:39.999Z,32.80
2023-04-13T15:36:12.434Z,33.18
2023-04-13T15:38:47.417Z,32.70
2023-04-13T15:41:27.332Z,32.66
2023-04-13T15:44:17.885Z,33.33
2023-04-13T15:46:45.039Z,33.20
2023-04-13T15:49:13.100Z,34.09
2023-04-13T15:51:39.882Z,34.09
2023-04-13T15:54:06.365Z,33.58
2023-04-13T15:56:33.287Z,33.76
2023-04-13T15:59:03.059Z,34.37
2023-04-13T16:01:43.574Z,34.38
2023-04-13T16:04:14.380Z,33.91
2023-04-13T16:06:44.101Z,34.28
2023-04-13T16:09:17.045Z,34.98
2023-04-13T16:12:10.174Z,34.13
2023-04-13T16:14:46.081Z,34.54
2023-04-13T16:17:18.138Z,34.65
2023-04-13T16:19:49.990Z,35.45
2023-04-13T16:22:17.360Z,35.57
2023-04-13T16:24:48.877Z,35.60
2023-04-13T16:27:42.169Z,35.47
2023-04-13T16:30:20.079Z,35.58
2023-04-13T16:32:47.642Z,35.68
2023-04-13T16:35:17.271Z,35.72
2023-04-13T16:37:44.476Z,36.03
2023-04-13T16:40:26.810Z,36.45
2023-04-13T16:42:53.323Z,36.76
2023-04-13T16:45:21.101Z,37.66
2023-04-13T16:48:11.485Z,38.36
2023-04-13T16:50:43.930Z,38.86
2023-04-13T16:53:20.908Z,40.24
2023-04-13T16:55:53.327Z,41.06
2023-04-13T16:58:20.206Z,41.49
2023-04-13T17:00:50.451Z,41.69
2023-04-13T17:03:17.694Z,41.90
2023-04-13T17:05:44.360Z,41.89
2023-04-13T17:10:25.794Z,44.05
2023-04-13T17:12:53.347Z,43.69
2023-04-13T17:15:26.621Z,43.77
2023-04-13T17:17:55.056Z,43.94
2023-04-13T17:20:31.977Z,44.72
2023-04-13T17:23:19.515Z,44.81
2023-04-13T17:26:10.563Z,44.66
2023-04-13T17:28:40.556Z,45.38
2023-04-13T17:31:10.799Z,46.19
2023-04-13T17:33:44.981Z,46.39
2023-04-13T17:36:15.448Z,46.48
2023-04-13T17:38:42.619Z,46.77
2023-04-13T17:41:18.061Z,47.00
2023-04-13T17:43:45.879Z,47.65
2023-04-13T17:46:15.883Z,48.48
2023-04-13T17:48:53.337Z,48.47
2023-04-13T17:51:21.551Z,49.62
2023-04-13T17:54:18.501Z,49.93
2023-04-13T17:56:48.449Z,50.32
2023-04-13T17:59:16.482Z,51.71
2023-04-13T18:01:44.106Z,52.37
2023-04-13T18:04:13.395Z,52.56
2023-04-13T18:06:44.243Z,52.60
2023-04-13T18:09:14.444Z,52.73
2023-04-13T18:11:42.304Z,52.83
2023-04-13T18:14:12.295Z,52.36
2023-04-13T18:16:45.558Z,52.30
2023-04-13T18:19:29.415Z,52.25
2023-04-13T18:21:59.065Z,52.79
2023-04-13T18:24:26.594Z,53.14
2023-04-13T18:26:54.008Z,52.65
2023-04-13T18:29:32.785Z,53.05
2023-04-13T18:32:04.467Z,52.89
2023-04-13T18:34:44.147Z,53.09
2023-04-13T18:37:14.914Z,53.04
2023-04-13T18:39:42.482Z,51.54
2023-04-13T18:42:10.159Z,51.51
2023-04-13T18:44:37.830Z,51.99
2023-04-13T18:47:05.415Z,53.43
2023-04-13T18:49:41.750Z,53.84
2023-04-13T18:52:28.690Z,53.08
2023-04-13T18:54:56.383Z,53.33
2023-04-13T18:57:24.288Z,53.80
2023-04-13T18:59:51.678Z,54.01
2023-04-13T19:02:26.577Z,54.13
2023-04-13T19:04:54.210Z,55.60
2023-04-13T19:07:21.550Z,54.94
2023-04-13T19:09:49.755Z,54.48
2023-04-13T19:12:17.566Z,54.50
2023-04-13T19:14:49.199Z,53.67
2023-04-13T19:17:30.942Z,53.17
2023-04-13T19:20:10.189Z,54.36
2023-04-13T19:22:40.488Z,54.73
2023-04-13T19:25:14.415Z,54.73
2023-04-13T19:27:51.638Z,55.70
2023-04-13T19:30:21.581Z,55.68
2023-04-13T19:33:00.949Z,55.63
2023-04-13T19:35:38.155Z,55.71
2023-04-13T19:38:13.728Z,55.70
2023-04-13T19:40:43.641Z,55.85
2023-04-13T19:43:14.782Z,55.26
2023-04-13T19:45:42.692Z,55.46
2023-04-13T19:48:19.940Z,56.35
2023-04-13T19:50:58.559Z,55.59
2023-04-13T19:53:37.452Z,53.66
2023-04-13T19:56:06.668Z,53.46
2023-04-13T19:58:36.460Z,53.03
2023-04-13T20:01:06.325Z,53.21
2023-04-13T20:03:40.363Z,54.70
2023-04-13T20:06:08.897Z,55.46
2023-04-13T20:08:42.163Z,55.16
2023-04-13T20:11:20.164Z,56.20
2023-04-13T20:13:53.253Z,56.27
2023-04-13T20:16:26.587Z,56.61
2023-04-13T20:18:54.029Z,56.52
2023-04-13T20:21:26.630Z,56.66
2023-04-13T20:23:54.090Z,57.30
2023-04-13T20:26:54.152Z,57.69
2023-04-13T20:29:29.312Z,57.72
2023-04-13T20:32:03.526Z,57.94
2023-04-13T20:34:35.126Z,57.23
2023-04-13T20:37:22.413Z,57.30
2023-04-13T20:40:27.006Z,57.65
2023-04-13T20:43:20.715Z,58.17
2023-04-13T20:45:59.920Z,58.35
2023-04-13T20:51:32.802Z,59.74
2023-04-13T20:54:44.328Z,58.72
2023-04-13T20:57:20.198Z,59.92
2023-04-13T21:00:14.491Z,59.63
2023-04-13T21:02:50.165Z,57.03
2023-04-13T21:05:38.352Z,57.17
2023-04-13T21:09:02.360Z,56.93
2023-04-13T21:11:33.114Z,57.01
2023-04-13T21:14:56.527Z,57.09
2023-04-13T21:18:36.823Z,58.24
2023-04-13T21:21:30.618Z,59.04
2023-04-13T21:24:24.355Z,59.12
2023-04-13T21:27:22.508Z,59.18
2023-04-13T21:30:31.952Z,61.17
2023-04-13T21:33:44.026Z,60.19
2023-04-13T21:39:34.469Z,57.87
2023-04-13T21:42:17.389Z,58.29
2023-04-13T21:45:03.995Z,58.65
2023-04-13T21:47:47.354Z,59.09
2023-04-13T21:50:34.188Z,59.45
2023-04-13T21:53:32.760Z,60.17
2023-04-13T21:56:42.915Z,60.88
2023-04-13T21:59:43.575Z,60.18
2023-04-13T22:02:34.757Z,58.77
2023-04-13T22:05:55.943Z,58.61
2023-04-13T22:09:06.636Z,58.77
2023-04-13T22:12:34.979Z,59.32
2023-04-13T22:15:49.723Z,59.90
2023-04-13T22:18:20.927Z,61.06
2023-04-13T22:20:53.968Z,62.03
2023-04-13T22:23:55.608Z,61.84
2023-04-13T22:26:47.140Z,60.27
2023-04-13T22:29:51.697Z,59.77
2023-04-13T22:33:22.030Z,59.79
2023-04-13T22:36:24.959Z,60.07
2023-04-13T22:39:38.570Z,60.71
2023-04-13T22:42:52.184Z,61.66
2023-04-13T22:46:08.004Z,62.76
2023-04-13T22:49:51.720Z,61.38
2023-04-13T22:53:35.184Z,59.82
2023-04-13T22:56:33.161Z,59.94
2023-04-13T22:59:51.377Z,60.60
2023-04-13T23:02:52.956Z,61.60
2023-04-13T23:05:51.497Z,62.55
2023-04-13T23:09:39.689Z,63.17
2023-04-13T23:12:53.645Z,61.33
2023-04-13T23:16:23.775Z,59.44
2023-04-13T23:19:14.339Z,59.60
2023-04-13T23:22:43.236Z,60.86
2023-04-13T23:26:23.473Z,61.46
2023-04-13T23:29:34.152Z,61.72
2023-04-13T23:33:35.358Z,63.37
2023-04-13T23:37:30.894Z,61.50
2023-04-13T23:41:10.755Z,60.59
2023-04-13T23:45:06.175Z,60.90
2023-04-13T23:48:33.757Z,62.12
2023-04-13T23:52:02.425Z,63.06
2023-04-13T23:55:27.733Z,63.28
2023-04-13T23:59:15.205Z,64.09
